createdAt,value
2022-10-06T00:02:23.329Z,101703.31
2022-10-06T00:04:49.920Z,101704.13
2022-10-06T00:07:17.373Z,101713.66
2022-10-06T00:09:43.975Z,101727.59
2022-10-06T00:12:10.627Z,101720.81
2022-10-06T00:14:37.794Z,101723.16
2022-10-06T00:17:05.092Z,101732.78
2022-10-06T00:19:31.582Z,101741.91
2022-10-06T00:21:58.434Z,101741.91
2022-10-06T00:24:24.927Z,101745.13
2022-10-06T00:26:51.416Z,101753.47
2022-10-06T00:29:18.739Z,101738.31
2022-10-06T00:31:45.202Z,101747.88
2022-10-06T00:34:11.624Z,101764.63
2022-10-06T00:36:38.023Z,101762.63
2022-10-06T00:39:04.463Z,101765.44
2022-10-06T00:41:31.132Z,101775.78
2022-10-06T00:43:58.971Z,101765.47
2022-10-06T00:46:40.756Z,101775.84
2022-10-06T00:49:25.371Z,101785.38
2022-10-06T00:51:57.742Z,101788.63
2022-10-06T00:54:25.323Z,101796.19
2022-10-06T00:56:52.422Z,101796.63
2022-10-06T00:59:19.098Z,101801.78
2022-10-06T01:02:22.964Z,101807.38
2022-10-06T01:04:55.594Z,101812.16
2022-10-06T01:07:24.240Z,101804.59
2022-10-06T01:09:50.823Z,101808.56
2022-10-06T01:12:17.315Z,101808.63
2022-10-06T01:14:43.818Z,101812.97
2022-10-06T01:17:24.872Z,101824.50
2022-10-06T01:20:01.333Z,101819.34
2022-10-06T01:22:41.159Z,101823.72
2022-10-06T01:25:10.038Z,101822.53
2022-10-06T01:27:39.070Z,101829.69
2022-10-06T01:30:09.043Z,101836.09
2022-10-06T01:32:38.862Z,101836.47
2022-10-06T01:35:06.737Z,101842.88
2022-10-06T01:37:33.174Z,101848.03
2022-10-06T01:39:59.587Z,101857.22
2022-10-06T01:42:26.417Z,101859.56
2022-10-06T01:44:52.849Z,101861.16
2022-10-06T01:47:19.226Z,101859.19
2022-10-06T01:49:45.623Z,101865.94
2022-10-06T01:52:12.083Z,101872.31
2022-10-06T01:54:38.541Z,101867.56
2022-10-06T01:57:06.322Z,101865.19
2022-10-06T01:59:32.741Z,101868.75
2022-10-06T02:01:59.488Z,101875.94
2022-10-06T02:04:26.038Z,101875.53
2022-10-06T02:06:55.349Z,101882.69
2022-10-06T02:09:22.727Z,101897.41
2022-10-06T02:11:49.294Z,101893.44
2022-10-06T02:14:18.020Z,101890.66
2022-10-06T02:16:45.060Z,101893.84
2022-10-06T02:19:11.580Z,101898.22
2022-10-06T02:21:38.830Z,101912.16
2022-10-06T02:24:05.362Z,101922.47
2022-10-06T02:26:32.163Z,101920.91
2022-10-06T02:28:58.723Z,101923.69
2022-10-06T02:31:25.559Z,101924.88
2022-10-06T02:33:52.023Z,101924.47
2022-10-06T02:36:18.441Z,101932.44
2022-10-06T02:38:44.856Z,101937.63
2022-10-06T02:41:11.269Z,101954.34
2022-10-06T02:43:37.862Z,101943.97
2022-10-06T02:46:12.017Z,101959.09
2022-10-06T02:48:40.634Z,101953.56
2022-10-06T02:51:12.304Z,101961.88
2022-10-06T02:53:39.819Z,101966.28
2022-10-06T02:56:08.669Z,101965.47
2022-10-06T02:58:35.071Z,101962.66
2022-10-06T03:01:05.377Z,101966.69
2022-10-06T03:03:34.832Z,101980.19
2022-10-06T03:06:05.676Z,101982.19
2022-10-06T03:08:32.813Z,101984.97
2022-10-06T03:11:01.103Z,101991.72
2022-10-06T03:13:27.867Z,101994.50
2022-10-06T03:15:54.376Z,102006.06
2022-10-06T03:18:21.579Z,102004.44
2022-10-06T03:20:48.595Z,102014.38
2022-10-06T03:23:15.150Z,102014.38
2022-10-06T03:25:41.518Z,102018.34
2022-10-06T03:28:07.923Z,102019.97
2022-10-06T03:30:34.359Z,102019.56
2022-10-06T03:33:01.770Z,102020.38
2022-10-06T03:35:28.187Z,102034.25
2022-10-06T03:37:54.604Z,102032.22
2022-10-06T03:40:20.978Z,102035.03
2022-10-06T03:42:47.364Z,102045.38
2022-10-06T03:45:13.832Z,102052.16
2022-10-06T03:47:40.215Z,102062.09
2022-10-06T03:50:07.177Z,102054.91
2022-10-06T03:52:34.081Z,102063.69
2022-10-06T03:55:00.455Z,102066.41
2022-10-06T03:57:26.838Z,102063.56
2022-10-06T03:59:53.280Z,102076.72
2022-10-06T04:02:19.729Z,102078.63
2022-10-06T04:04:46.198Z,102090.56
2022-10-06T04:07:12.600Z,102083.84
2022-10-06T04:09:39.091Z,102084.25
2022-10-06T04:12:05.511Z,102095.72
2022-10-06T04:14:31.917Z,102098.13
2022-10-06T04:16:58.651Z,102102.47
2022-10-06T04:19:25.309Z,102107.66
2022-10-06T04:21:51.714Z,102110.81
2022-10-06T04:24:18.539Z,102116.31
2022-10-06T04:26:46.359Z,102109.13
2022-10-06T04:29:13.564Z,102113.09
2022-10-06T04:31:42.351Z,102124.25
2022-10-06T04:34:10.882Z,102132.56
2022-10-06T04:36:40.889Z,102136.50
2022-10-06T04:39:10.141Z,102132.84
2022-10-06T04:41:39.027Z,102140.00
2022-10-06T04:44:06.664Z,102142.84
2022-10-06T04:46:43.708Z,102146.72
2022-10-06T04:49:17.918Z,102148.03
2022-10-06T04:51:46.324Z,102152.72
2022-10-06T04:54:12.841Z,102163.03
2022-10-06T04:56:39.245Z,102166.25
2022-10-06T04:59:05.648Z,102170.19
2022-10-06T05:01:34.236Z,102173.34
2022-10-06T05:04:02.229Z,102175.31
2022-10-06T05:06:34.701Z,102178.84
2022-10-06T05:09:05.078Z,102189.66
2022-10-06T05:11:31.859Z,102189.53
2022-10-06T05:13:59.369Z,102179.19
2022-10-06T05:16:28.495Z,102203.81
2022-10-06T05:18:54.964Z,102201.13
2022-10-06T05:21:24.307Z,102209.44
2022-10-06T05:23:51.051Z,102215.75
2022-10-06T05:26:20.649Z,102224.41
2022-10-06T05:28:47.343Z,102214.78
2022-10-06T05:31:20.755Z,102223.84
2022-10-06T05:33:47.952Z,102231.84
2022-10-06T05:36:19.554Z,102233.00
2022-10-06T05:38:47.063Z,102240.53
2022-10-06T05:41:16.281Z,102244.34
2022-10-06T05:43:43.296Z,102246.06
2022-10-06T05:46:17.586Z,102238.41
2022-10-06T05:48:47.959Z,102246.72
2022-10-06T05:51:14.966Z,102250.31
2022-10-06T05:53:41.630Z,102260.19
2022-10-06T05:56:26.629Z,102272.94
2022-10-06T05:58:54.858Z,102276.09
2022-10-06T06:01:32.144Z,102278.50
2022-10-06T06:04:01.214Z,102279.19
2022-10-06T06:06:34.445Z,102299.41
2022-10-06T06:09:04.240Z,102284.28
2022-10-06T06:11:31.626Z,102286.31
2022-10-06T06:13:58.683Z,102299.03
2022-10-06T06:16:26.392Z,102296.31
2022-10-06T06:18:52.963Z,102301.03
2022-10-06T06:21:19.566Z,102309.03
2022-10-06T06:23:48.123Z,102300.66
2022-10-06T06:26:17.359Z,102313.31
2022-10-06T21:56:09.966Z,102518.41
2022-10-06T21:58:36.383Z,102513.84
2022-10-06T22:01:07.717Z,102514.28
2022-10-06T22:03:38.723Z,102510.56
2022-10-06T22:06:07.375Z,102511.78
2022-10-06T22:08:35.744Z,102508.66
2022-10-06T22:11:07.407Z,102503.94
2022-10-06T22:13:33.967Z,102502.59
2022-10-06T22:16:04.161Z,102503.31
2022-10-06T22:18:34.916Z,102495.19
2022-10-06T22:21:01.308Z,102499.47
2022-10-06T22:23:28.080Z,102490.19
2022-10-06T22:25:57.889Z,102492.84
2022-10-06T22:28:25.283Z,102489.66
2022-10-06T22:31:11.306Z,102487.66
2022-10-06T22:33:39.660Z,102477.69
2022-10-06T22:36:07.169Z,102480.88
2022-10-06T22:38:34.438Z,102490.44
2022-10-06T22:41:02.329Z,102484.00
2022-10-06T22:43:29.659Z,102474.00
2022-10-06T22:45:56.850Z,102473.22
2022-10-06T22:48:23.702Z,102466.44
2022-10-06T22:50:50.760Z,102464.38
2022-10-06T22:53:21.216Z,102466.22
2022-10-06T22:55:47.858Z,102458.28
2022-10-06T22:58:15.442Z,102455.78
2022-10-06T23:00:42.849Z,102454.88
2022-10-06T23:03:09.588Z,102447.94
2022-10-06T23:05:36.804Z,102444.16
2022-10-06T23:08:04.410Z,102441.97
2022-10-06T23:10:33.571Z,102443.16
2022-10-06T23:13:00.363Z,102442.38
2022-10-06T23:15:27.502Z,102445.13
2022-10-06T23:17:54.221Z,102443.16
2022-10-06T23:20:21.303Z,102439.59
2022-10-06T23:22:47.885Z,102434.66
2022-10-06T23:25:14.382Z,102433.59
2022-10-06T23:27:40.952Z,102436.34
2022-10-06T23:30:08.213Z,102431.50
2022-10-06T23:32:34.663Z,102429.22
2022-10-06T23:35:01.083Z,102424.94
2022-10-06T23:37:28.311Z,102425.97
2022-10-06T23:39:54.701Z,102421.78
2022-10-06T23:42:21.122Z,102420.50
2022-10-06T23:44:47.533Z,102418.47
2022-10-06T23:47:13.940Z,102417.97
2022-10-06T23:49:43.420Z,102420.75
2022-10-06T23:52:09.954Z,102421.91
2022-10-06T23:54:36.417Z,102412.94
2022-10-06T23:57:02.927Z,102403.69
2022-10-06T23:59:29.561Z,102410.84
